sensor_id;sensor_type;location;lat;lon;timestamp;P1;durP1;ratioP1;P2;durP2;ratioP2
9445;SDS011;4761;49.490;10.908;2022-10-31T00:01:17;4.30;;;3.90;;
9445;SDS011;4761;49.490;10.908;2022-10-31T00:03:45;7.87;;;4.63;;
9445;SDS011;4761;49.490;10.908;2022-10-31T00:06:11;6.53;;;4.33;;
9445;SDS011;4761;49.490;10.908;2022-10-31T00:08:37;5.03;;;3.77;;
9445;SDS011;4761;49.490;10.908;2022-10-31T00:11:02;6.07;;;4.00;;
9445;SDS011;4761;49.490;10.908;2022-10-31T00:13:28;4.07;;;3.40;;
9445;SDS011;4761;49.490;10.908;2022-10-31T00:15:53;4.17;;;3.77;;
9445;SDS011;4761;49.490;10.908;2022-10-31T00:18:19;7.07;;;4.10;;
9445;SDS011;4761;49.490;10.908;2022-10-31T00:20:45;8.37;;;4.20;;
9445;SDS011;4761;49.490;10.908;2022-10-31T00:23:11;7.20;;;3.80;;
9445;SDS011;4761;49.490;10.908;2022-10-31T00:25:37;4.70;;;3.97;;
9445;SDS011;4761;49.490;10.908;2022-10-31T00:28:04;5.77;;;4.10;;
9445;SDS011;4761;49.490;10.908;2022-10-31T00:30:31;8.00;;;4.27;;
9445;SDS011;4761;49.490;10.908;2022-10-31T00:32:57;4.70;;;4.20;;
9445;SDS011;4761;49.490;10.908;2022-10-31T00:35:22;6.00;;;4.30;;
9445;SDS011;4761;49.490;10.908;2022-10-31T00:37:48;5.03;;;4.17;;
9445;SDS011;4761;49.490;10.908;2022-10-31T00:40:13;4.20;;;3.63;;
9445;SDS011;4761;49.490;10.908;2022-10-31T00:42:39;4.43;;;3.83;;
9445;SDS011;4761;49.490;10.908;2022-10-31T00:45:07;4.93;;;4.13;;
9445;SDS011;4761;49.490;10.908;2022-10-31T00:47:33;6.30;;;4.10;;
9445;SDS011;4761;49.490;10.908;2022-10-31T00:49:59;5.43;;;3.80;;
9445;SDS011;4761;49.490;10.908;2022-10-31T00:52:24;4.57;;;4.13;;
9445;SDS011;4761;49.490;10.908;2022-10-31T00:54:50;7.20;;;4.20;;
9445;SDS011;4761;49.490;10.908;2022-10-31T00:57:15;5.77;;;3.90;;
9445;SDS011;4761;49.490;10.908;2022-10-31T00:59:41;4.33;;;3.90;;
9445;SDS011;4761;49.490;10.908;2022-10-31T01:02:06;4.27;;;3.80;;
9445;SDS011;4761;49.490;10.908;2022-10-31T01:04:32;3.93;;;3.53;;
9445;SDS011;4761;49.490;10.908;2022-10-31T01:06:57;4.50;;;3.90;;
9445;SDS011;4761;49.490;10.908;2022-10-31T01:09:23;4.27;;;3.80;;
9445;SDS011;4761;49.490;10.908;2022-10-31T01:11:48;5.20;;;4.07;;
9445;SDS011;4761;49.490;10.908;2022-10-31T01:14:14;4.80;;;3.50;;
9445;SDS011;4761;49.490;10.908;2022-10-31T01:16:39;3.80;;;3.50;;
9445;SDS011;4761;49.490;10.908;2022-10-31T01:19:05;4.33;;;3.60;;
9445;SDS011;4761;49.490;10.908;2022-10-31T01:21:31;3.77;;;3.43;;
9445;SDS011;4761;49.490;10.908;2022-10-31T01:23:57;4.57;;;3.73;;
9445;SDS011;4761;49.490;10.908;2022-10-31T01:26:24;5.87;;;3.70;;
9445;SDS011;4761;49.490;10.908;2022-10-31T01:31:19;5.10;;;4.03;;
9445;SDS011;4761;49.490;10.908;2022-10-31T01:33:46;4.07;;;3.77;;
9445;SDS011;4761;49.490;10.908;2022-10-31T01:38:46;6.67;;;3.80;;
9445;SDS011;4761;49.490;10.908;2022-10-31T01:41:13;6.23;;;3.50;;
9445;SDS011;4761;49.490;10.908;2022-10-31T01:46:09;4.20;;;3.80;;
9445;SDS011;4761;49.490;10.908;2022-10-31T01:48:36;4.13;;;3.73;;
9445;SDS011;4761;49.490;10.908;2022-10-31T01:51:02;4.33;;;3.73;;
9445;SDS011;4761;49.490;10.908;2022-10-31T01:53:29;5.20;;;4.10;;
9445;SDS011;4761;49.490;10.908;2022-10-31T01:55:56;5.43;;;3.80;;
9445;SDS011;4761;49.490;10.908;2022-10-31T01:58:22;4.63;;;3.97;;
9445;SDS011;4761;49.490;10.908;2022-10-31T02:00:54;5.77;;;4.00;;
9445;SDS011;4761;49.490;10.908;2022-10-31T02:03:22;4.50;;;4.10;;
9445;SDS011;4761;49.490;10.908;2022-10-31T02:05:50;5.00;;;4.17;;
9445;SDS011;4761;49.490;10.908;2022-10-31T02:08:28;4.40;;;4.00;;
9445;SDS011;4761;49.490;10.908;2022-10-31T02:10:58;5.33;;;3.80;;
9445;SDS011;4761;49.490;10.908;2022-10-31T02:13:25;3.87;;;3.57;;
9445;SDS011;4761;49.490;10.908;2022-10-31T02:15:54;3.73;;;3.43;;
9445;SDS011;4761;49.490;10.908;2022-10-31T02:18:22;5.83;;;3.33;;
9445;SDS011;4761;49.490;10.908;2022-10-31T02:26:41;3.80;;;3.27;;
9445;SDS011;4761;49.490;10.908;2022-10-31T02:31:40;3.47;;;3.17;;
9445;SDS011;4761;49.490;10.908;2022-10-31T02:34:12;3.67;;;3.10;;
9445;SDS011;4761;49.490;10.908;2022-10-31T02:37:02;4.00;;;3.63;;
9445;SDS011;4761;49.490;10.908;2022-10-31T02:39:38;3.47;;;3.03;;
9445;SDS011;4761;49.490;10.908;2022-10-31T02:42:24;3.70;;;3.30;;
9445;SDS011;4761;49.490;10.908;2022-10-31T02:47:47;5.33;;;3.40;;
9445;SDS011;4761;49.490;10.908;2022-10-31T02:50:17;3.40;;;3.10;;
9445;SDS011;4761;49.490;10.908;2022-10-31T02:52:51;5.10;;;3.47;;
9445;SDS011;4761;49.490;10.908;2022-10-31T02:57:53;3.67;;;3.10;;
9445;SDS011;4761;49.490;10.908;2022-10-31T03:00:28;3.50;;;3.20;;
9445;SDS011;4761;49.490;10.908;2022-10-31T03:03:12;3.20;;;2.90;;
9445;SDS011;4761;49.490;10.908;2022-10-31T03:06:00;3.97;;;3.40;;
9445;SDS011;4761;49.490;10.908;2022-10-31T03:08:30;4.87;;;3.27;;
9445;SDS011;4761;49.490;10.908;2022-10-31T03:11:21;4.73;;;2.97;;
9445;SDS011;4761;49.490;10.908;2022-10-31T03:13:51;3.73;;;3.33;;
9445;SDS011;4761;49.490;10.908;2022-10-31T03:16:37;6.30;;;3.13;;
9445;SDS011;4761;49.490;10.908;2022-10-31T03:19:16;3.83;;;3.23;;
9445;SDS011;4761;49.490;10.908;2022-10-31T03:24:26;4.37;;;3.50;;
9445;SDS011;4761;49.490;10.908;2022-10-31T03:26:56;5.83;;;3.53;;
9445;SDS011;4761;49.490;10.908;2022-10-31T03:29:25;4.33;;;3.93;;
9445;SDS011;4761;49.490;10.908;2022-10-31T03:31:59;5.60;;;3.67;;
9445;SDS011;4761;49.490;10.908;2022-10-31T03:34:27;6.63;;;3.57;;
9445;SDS011;4761;49.490;10.908;2022-10-31T03:36:56;3.93;;;3.53;;
9445;SDS011;4761;49.490;10.908;2022-10-31T03:39:24;4.50;;;3.20;;
9445;SDS011;4761;49.490;10.908;2022-10-31T03:41:56;3.67;;;3.37;;
9445;SDS011;4761;49.490;10.908;2022-10-31T03:44:29;3.70;;;3.40;;
9445;SDS011;4761;49.490;10.908;2022-10-31T03:46:57;3.70;;;3.23;;
9445;SDS011;4761;49.490;10.908;2022-10-31T03:49:23;3.23;;;2.97;;
9445;SDS011;4761;49.490;10.908;2022-10-31T03:51:51;3.50;;;3.20;;
9445;SDS011;4761;49.490;10.908;2022-10-31T03:54:25;3.97;;;2.90;;
9445;SDS011;4761;49.490;10.908;2022-10-31T03:57:02;3.23;;;2.90;;
9445;SDS011;4761;49.490;10.908;2022-10-31T03:59:51;3.77;;;2.80;;
9445;SDS011;4761;49.490;10.908;2022-10-31T04:02:23;3.00;;;2.70;;
9445;SDS011;4761;49.490;10.908;2022-10-31T04:04:53;4.07;;;3.00;;
9445;SDS011;4761;49.490;10.908;2022-10-31T04:07:19;3.60;;;3.20;;
9445;SDS011;4761;49.490;10.908;2022-10-31T04:09:48;4.80;;;3.30;;
9445;SDS011;4761;49.490;10.908;2022-10-31T04:12:16;3.30;;;3.00;;
9445;SDS011;4761;49.490;10.908;2022-10-31T04:14:43;3.40;;;3.10;;
9445;SDS011;4761;49.490;10.908;2022-10-31T04:17:12;3.37;;;3.07;;
9445;SDS011;4761;49.490;10.908;2022-10-31T04:19:39;3.90;;;3.40;;
9445;SDS011;4761;49.490;10.908;2022-10-31T04:22:05;4.03;;;3.20;;
9445;SDS011;4761;49.490;10.908;2022-10-31T04:24:31;4.57;;;3.50;;
9445;SDS011;4761;49.490;10.908;2022-10-31T04:26:57;4.10;;;3.70;;
9445;SDS011;4761;49.490;10.908;2022-10-31T04:29:22;4.03;;;3.63;;
9445;SDS011;4761;49.490;10.908;2022-10-31T04:31:48;3.50;;;3.20;;
9445;SDS011;4761;49.490;10.908;2022-10-31T04:34:13;5.00;;;3.90;;
9445;SDS011;4761;49.490;10.908;2022-10-31T04:36:39;4.10;;;3.33;;
9445;SDS011;4761;49.490;10.908;2022-10-31T04:39:04;3.50;;;3.20;;
9445;SDS011;4761;49.490;10.908;2022-10-31T04:41:30;3.50;;;3.20;;
9445;SDS011;4761;49.490;10.908;2022-10-31T04:43:55;4.13;;;3.60;;
9445;SDS011;4761;49.490;10.908;2022-10-31T04:46:21;4.30;;;3.53;;
9445;SDS011;4761;49.490;10.908;2022-10-31T04:48:46;4.80;;;3.73;;
9445;SDS011;4761;49.490;10.908;2022-10-31T04:51:12;3.70;;;3.30;;
9445;SDS011;4761;49.490;10.908;2022-10-31T04:53:37;3.03;;;2.77;;
9445;SDS011;4761;49.490;10.908;2022-10-31T04:56:03;3.90;;;3.13;;
9445;SDS011;4761;49.490;10.908;2022-10-31T04:58:29;3.67;;;3.37;;
9445;SDS011;4761;49.490;10.908;2022-10-31T05:00:55;4.27;;;3.17;;
9445;SDS011;4761;49.490;10.908;2022-10-31T05:03:21;5.23;;;2.77;;
9445;SDS011;4761;49.490;10.908;2022-10-31T05:05:47;3.03;;;2.80;;
9445;SDS011;4761;49.490;10.908;2022-10-31T05:08:13;3.57;;;3.00;;
9445;SDS011;4761;49.490;10.908;2022-10-31T05:10:39;4.73;;;2.83;;
9445;SDS011;4761;49.490;10.908;2022-10-31T05:13:05;3.90;;;3.33;;
9445;SDS011;4761;49.490;10.908;2022-10-31T05:15:30;3.27;;;2.97;;
9445;SDS011;4761;49.490;10.908;2022-10-31T05:17:57;6.20;;;3.17;;
9445;SDS011;4761;49.490;10.908;2022-10-31T05:20:26;4.47;;;3.07;;
9445;SDS011;4761;49.490;10.908;2022-10-31T05:22:54;3.40;;;2.83;;
9445;SDS011;4761;49.490;10.908;2022-10-31T05:25:21;4.43;;;3.10;;
9445;SDS011;4761;49.490;10.908;2022-10-31T05:27:49;3.43;;;2.73;;
9445;SDS011;4761;49.490;10.908;2022-10-31T05:30:17;10.20;;;3.13;;
9445;SDS011;4761;49.490;10.908;2022-10-31T05:32:46;3.07;;;2.77;;
9445;SDS011;4761;49.490;10.908;2022-10-31T05:35:13;3.53;;;3.23;;
9445;SDS011;4761;49.490;10.908;2022-10-31T05:37:40;3.87;;;3.07;;
9445;SDS011;4761;49.490;10.908;2022-10-31T05:40:07;3.90;;;3.50;;
9445;SDS011;4761;49.490;10.908;2022-10-31T05:42:35;3.60;;;3.27;;
9445;SDS011;4761;49.490;10.908;2022-10-31T05:45:02;3.47;;;3.17;;
9445;SDS011;4761;49.490;10.908;2022-10-31T05:47:28;3.40;;;3.10;;
9445;SDS011;4761;49.490;10.908;2022-10-31T05:49:54;3.33;;;3.03;;
9445;SDS011;4761;49.490;10.908;2022-10-31T05:52:19;5.00;;;3.30;;
9445;SDS011;4761;49.490;10.908;2022-10-31T05:54:45;4.30;;;2.97;;
9445;SDS011;4761;49.490;10.908;2022-10-31T05:57:10;3.10;;;2.80;;
9445;SDS011;4761;49.490;10.908;2022-10-31T05:59:36;2.93;;;2.73;;
9445;SDS011;4761;49.490;10.908;2022-10-31T06:02:01;2.83;;;2.63;;
9445;SDS011;4761;49.490;10.908;2022-10-31T06:04:27;3.00;;;2.80;;
9445;SDS011;4761;49.490;10.908;2022-10-31T06:06:52;3.13;;;2.93;;
9445;SDS011;4761;49.490;10.908;2022-10-31T06:09:18;3.10;;;2.90;;
9445;SDS011;4761;49.490;10.908;2022-10-31T06:11:44;3.10;;;2.90;;
9445;SDS011;4761;49.490;10.908;2022-10-31T06:14:09;3.63;;;3.33;;
9445;SDS011;4761;49.490;10.908;2022-10-31T06:16:35;3.33;;;3.03;;
9445;SDS011;4761;49.490;10.908;2022-10-31T06:19:00;2.97;;;2.77;;
9445;SDS011;4761;49.490;10.908;2022-10-31T06:21:26;3.87;;;3.20;;
9445;SDS011;4761;49.490;10.908;2022-10-31T06:23:51;3.23;;;2.87;;
9445;SDS011;4761;49.490;10.908;2022-10-31T06:26:17;3.27;;;2.97;;
9445;SDS011;4761;49.490;10.908;2022-10-31T06:28:42;3.03;;;2.73;;
9445;SDS011;4761;49.490;10.908;2022-10-31T06:31:08;3.10;;;2.90;;
9445;SDS011;4761;49.490;10.908;2022-10-31T06:33:33;2.73;;;2.53;;
9445;SDS011;4761;49.490;10.908;2022-10-31T06:35:59;2.57;;;2.37;;
9445;SDS011;4761;49.490;10.908;2022-10-31T06:38:26;2.83;;;2.63;;
9445;SDS011;4761;49.490;10.908;2022-10-31T06:40:52;2.50;;;2.30;;
9445;SDS011;4761;49.490;10.908;2022-10-31T06:43:18;2.70;;;2.50;;
9445;SDS011;4761;49.490;10.908;2022-10-31T06:45:44;2.70;;;2.50;;
9445;SDS011;4761;49.490;10.908;2022-10-31T06:48:10;2.60;;;2.40;;
9445;SDS011;4761;49.490;10.908;2022-10-31T06:50:35;3.93;;;2.80;;
9445;SDS011;4761;49.490;10.908;2022-10-31T06:53:01;2.93;;;2.73;;
9445;SDS011;4761;49.490;10.908;2022-10-31T06:55:26;2.57;;;2.37;;
9445;SDS011;4761;49.490;10.908;2022-10-31T06:57:52;2.70;;;2.50;;
9445;SDS011;4761;49.490;10.908;2022-10-31T07:00:19;2.63;;;2.43;;
9445;SDS011;4761;49.490;10.908;2022-10-31T07:03:04;3.10;;;2.80;;
9445;SDS011;4761;49.490;10.908;2022-10-31T07:05:32;2.97;;;2.73;;
9445;SDS011;4761;49.490;10.908;2022-10-31T07:08:02;2.67;;;2.40;;
9445;SDS011;4761;49.490;10.908;2022-10-31T07:10:31;2.70;;;2.50;;
9445;SDS011;4761;49.490;10.908;2022-10-31T07:12:59;2.70;;;2.50;;
9445;SDS011;4761;49.490;10.908;2022-10-31T07:15:28;3.30;;;3.00;;
9445;SDS011;4761;49.490;10.908;2022-10-31T07:18:01;4.30;;;3.00;;
9445;SDS011;4761;49.490;10.908;2022-10-31T07:20:27;3.07;;;2.77;;
9445;SDS011;4761;49.490;10.908;2022-10-31T07:22:53;3.23;;;2.90;;
9445;SDS011;4761;49.490;10.908;2022-10-31T07:25:19;3.40;;;3.07;;
9445;SDS011;4761;49.490;10.908;2022-10-31T07:27:45;3.00;;;2.80;;
9445;SDS011;4761;49.490;10.908;2022-10-31T07:30:11;4.03;;;3.17;;
9445;SDS011;4761;49.490;10.908;2022-10-31T07:32:38;3.83;;;3.13;;
9445;SDS011;4761;49.490;10.908;2022-10-31T07:35:05;3.30;;;3.00;;
9445;SDS011;4761;49.490;10.908;2022-10-31T07:37:35;3.23;;;2.93;;
9445;SDS011;4761;49.490;10.908;2022-10-31T07:40:01;3.70;;;3.20;;
9445;SDS011;4761;49.490;10.908;2022-10-31T07:42:27;3.40;;;3.10;;
9445;SDS011;4761;49.490;10.908;2022-10-31T07:44:53;3.77;;;3.37;;
9445;SDS011;4761;49.490;10.908;2022-10-31T07:47:18;3.60;;;3.30;;
9445;SDS011;4761;49.490;10.908;2022-10-31T07:49:44;3.93;;;3.53;;
9445;SDS011;4761;49.490;10.908;2022-10-31T07:52:09;3.77;;;3.40;;
9445;SDS011;4761;49.490;10.908;2022-10-31T07:54:35;4.20;;;3.80;;
9445;SDS011;4761;49.490;10.908;2022-10-31T07:57:00;3.80;;;3.50;;
9445;SDS011;4761;49.490;10.908;2022-10-31T07:59:26;3.90;;;3.50;;
9445;SDS011;4761;49.490;10.908;2022-10-31T08:01:52;4.43;;;3.67;;
9445;SDS011;4761;49.490;10.908;2022-10-31T08:04:18;7.40;;;3.97;;
9445;SDS011;4761;49.490;10.908;2022-10-31T08:06:43;4.13;;;3.50;;
9445;SDS011;4761;49.490;10.908;2022-10-31T08:09:09;4.07;;;3.60;;
9445;SDS011;4761;49.490;10.908;2022-10-31T08:11:34;4.05;;;3.65;;
9445;SDS011;4761;49.490;10.908;2022-10-31T08:14:00;3.95;;;3.55;;
9445;SDS011;4761;49.490;10.908;2022-10-31T08:16:26;3.85;;;3.40;;
9445;SDS011;4761;49.490;10.908;2022-10-31T08:18:51;4.88;;;3.30;;
9445;SDS011;4761;49.490;10.908;2022-10-31T08:21:19;3.85;;;3.45;;
9445;SDS011;4761;49.490;10.908;2022-10-31T08:23:44;3.88;;;3.47;;
9445;SDS011;4761;49.490;10.908;2022-10-31T08:26:10;5.10;;;3.72;;
9445;SDS011;4761;49.490;10.908;2022-10-31T08:28:35;4.03;;;3.63;;
9445;SDS011;4761;49.490;10.908;2022-10-31T08:31:01;4.40;;;3.97;;
9445;SDS011;4761;49.490;10.908;2022-10-31T08:33:26;5.82;;;4.05;;
9445;SDS011;4761;49.490;10.908;2022-10-31T08:35:52;4.20;;;3.87;;
9445;SDS011;4761;49.490;10.908;2022-10-31T08:38:17;4.40;;;4.00;;
9445;SDS011;4761;49.490;10.908;2022-10-31T08:40:43;4.57;;;4.15;;
9445;SDS011;4761;49.490;10.908;2022-10-31T08:43:13;4.28;;;3.88;;
9445;SDS011;4761;49.490;10.908;2022-10-31T08:45:40;4.77;;;4.13;;
9445;SDS011;4761;49.490;10.908;2022-10-31T08:48:09;4.68;;;4.25;;
9445;SDS011;4761;49.490;10.908;2022-10-31T08:50:36;4.72;;;4.18;;
9445;SDS011;4761;49.490;10.908;2022-10-31T08:55:28;5.30;;;4.72;;
9445;SDS011;4761;49.490;10.908;2022-10-31T08:57:54;6.03;;;4.78;;
9445;SDS011;4761;49.490;10.908;2022-10-31T09:00:23;5.00;;;4.33;;
9445;SDS011;4761;49.490;10.908;2022-10-31T09:02:54;7.55;;;5.15;;
9445;SDS011;4761;49.490;10.908;2022-10-31T09:05:21;6.20;;;5.07;;
9445;SDS011;4761;49.490;10.908;2022-10-31T09:07:46;6.07;;;5.07;;
9445;SDS011;4761;49.490;10.908;2022-10-31T09:10:11;7.40;;;6.00;;
9445;SDS011;4761;49.490;10.908;2022-10-31T09:12:37;9.47;;;6.30;;
9445;SDS011;4761;49.490;10.908;2022-10-31T09:15:03;15.60;;;6.70;;
9445;SDS011;4761;49.490;10.908;2022-10-31T09:17:31;15.77;;;8.07;;
9445;SDS011;4761;49.490;10.908;2022-10-31T09:19:56;14.23;;;7.47;;
9445;SDS011;4761;49.490;10.908;2022-10-31T09:22:22;14.43;;;7.57;;
9445;SDS011;4761;49.490;10.908;2022-10-31T09:24:47;13.03;;;7.10;;
9445;SDS011;4761;49.490;10.908;2022-10-31T09:27:13;13.00;;;7.33;;
9445;SDS011;4761;49.490;10.908;2022-10-31T09:29:38;13.87;;;7.70;;
9445;SDS011;4761;49.490;10.908;2022-10-31T09:32:04;11.20;;;7.30;;
9445;SDS011;4761;49.490;10.908;2022-10-31T09:34:29;12.27;;;6.60;;
9445;SDS011;4761;49.490;10.908;2022-10-31T09:36:55;12.17;;;6.73;;
9445;SDS011;4761;49.490;10.908;2022-10-31T09:39:20;9.73;;;7.00;;
9445;SDS011;4761;49.490;10.908;2022-10-31T09:46:57;9.07;;;6.47;;
9445;SDS011;4761;49.490;10.908;2022-10-31T09:52:32;11.17;;;7.17;;
9445;SDS011;4761;49.490;10.908;2022-10-31T09:55:21;8.70;;;6.70;;
9445;SDS011;4761;49.490;10.908;2022-10-31T09:58:10;8.03;;;6.30;;
9445;SDS011;4761;49.490;10.908;2022-10-31T10:00:42;7.60;;;6.20;;
9445;SDS011;4761;49.490;10.908;2022-10-31T10:03:29;8.13;;;5.97;;
9445;SDS011;4761;49.490;10.908;2022-10-31T10:06:17;11.07;;;6.47;;
9445;SDS011;4761;49.490;10.908;2022-10-31T10:08:46;8.93;;;6.27;;
9445;SDS011;4761;49.490;10.908;2022-10-31T10:32:58;14.33;;;5.30;;
9445;SDS011;4761;49.490;10.908;2022-10-31T10:35:45;10.17;;;5.07;;
9445;SDS011;4761;49.490;10.908;2022-10-31T10:40:43;10.50;;;5.40;;
9445;SDS011;4761;49.490;10.908;2022-10-31T10:49:23;8.03;;;5.30;;
9445;SDS011;4761;49.490;10.908;2022-10-31T10:52:05;9.83;;;5.00;;
9445;SDS011;4761;49.490;10.908;2022-10-31T10:54:46;7.07;;;4.73;;
9445;SDS011;4761;49.490;10.908;2022-10-31T11:00:13;6.83;;;4.73;;
9445;SDS011;4761;49.490;10.908;2022-10-31T11:02:55;8.53;;;4.83;;
9445;SDS011;4761;49.490;10.908;2022-10-31T11:05:26;11.17;;;5.10;;
9445;SDS011;4761;49.490;10.908;2022-10-31T11:07:57;6.33;;;4.80;;
9445;SDS011;4761;49.490;10.908;2022-10-31T11:10:23;8.00;;;4.83;;
9445;SDS011;4761;49.490;10.908;2022-10-31T11:13:00;7.17;;;4.93;;
9445;SDS011;4761;49.490;10.908;2022-10-31T11:15:33;7.00;;;4.85;;
9445;SDS011;4761;49.490;10.908;2022-10-31T11:18:02;6.80;;;4.53;;
9445;SDS011;4761;49.490;10.908;2022-10-31T11:20:30;5.83;;;4.60;;
9445;SDS011;4761;49.490;10.908;2022-10-31T11:23:03;5.10;;;4.47;;
9445;SDS011;4761;49.490;10.908;2022-10-31T11:25:29;6.13;;;4.97;;
9445;SDS011;4761;49.490;10.908;2022-10-31T11:27:58;5.05;;;4.05;;
9445;SDS011;4761;49.490;10.908;2022-10-31T11:30:28;6.28;;;4.15;;
9445;SDS011;4761;49.490;10.908;2022-10-31T11:32:55;7.97;;;4.53;;
9445;SDS011;4761;49.490;10.908;2022-10-31T11:35:22;5.50;;;4.47;;
9445;SDS011;4761;49.490;10.908;2022-10-31T11:37:50;7.38;;;4.40;;
9445;SDS011;4761;49.490;10.908;2022-10-31T11:40:19;8.75;;;4.85;;
9445;SDS011;4761;49.490;10.908;2022-10-31T11:42:47;6.95;;;4.70;;
9445;SDS011;4761;49.490;10.908;2022-10-31T11:47:47;7.85;;;4.40;;
9445;SDS011;4761;49.490;10.908;2022-10-31T11:50:22;6.68;;;4.30;;
9445;SDS011;4761;49.490;10.908;2022-10-31T11:52:50;7.47;;;4.97;;
9445;SDS011;4761;49.490;10.908;2022-10-31T11:55:34;7.15;;;4.75;;
9445;SDS011;4761;49.490;10.908;2022-10-31T11:58:02;7.88;;;4.35;;
9445;SDS011;4761;49.490;10.908;2022-10-31T12:00:37;8.52;;;4.70;;
9445;SDS011;4761;49.490;10.908;2022-10-31T12:06:15;8.55;;;5.10;;
9445;SDS011;4761;49.490;10.908;2022-10-31T12:08:44;5.65;;;4.65;;
9445;SDS011;4761;49.490;10.908;2022-10-31T12:11:13;6.25;;;4.95;;
9445;SDS011;4761;49.490;10.908;2022-10-31T12:18:56;9.77;;;5.32;;
9445;SDS011;4761;49.490;10.908;2022-10-31T12:21:45;8.20;;;5.40;;
9445;SDS011;4761;49.490;10.908;2022-10-31T12:24:34;7.88;;;5.32;;
9445;SDS011;4761;49.490;10.908;2022-10-31T12:27:23;7.45;;;4.75;;
9445;SDS011;4761;49.490;10.908;2022-10-31T12:35:20;6.60;;;5.07;;
9445;SDS011;4761;49.490;10.908;2022-10-31T12:43:55;14.20;;;5.75;;
9445;SDS011;4761;49.490;10.908;2022-10-31T12:46:26;14.30;;;6.13;;
9445;SDS011;4761;49.490;10.908;2022-10-31T12:52:07;9.80;;;5.57;;
9445;SDS011;4761;49.490;10.908;2022-10-31T12:55:03;10.70;;;5.65;;
9445;SDS011;4761;49.490;10.908;2022-10-31T12:57:42;11.43;;;6.00;;
9445;SDS011;4761;49.490;10.908;2022-10-31T13:00:12;11.40;;;5.93;;
9445;SDS011;4761;49.490;10.908;2022-10-31T13:02:44;13.65;;;5.70;;
9445;SDS011;4761;49.490;10.908;2022-10-31T13:05:40;11.10;;;6.45;;
9445;SDS011;4761;49.490;10.908;2022-10-31T13:08:10;11.75;;;6.40;;
9445;SDS011;4761;49.490;10.908;2022-10-31T13:10:41;20.60;;;5.68;;
9445;SDS011;4761;49.490;10.908;2022-10-31T13:13:27;18.67;;;5.03;;
9445;SDS011;4761;49.490;10.908;2022-10-31T13:15:59;17.10;;;5.45;;
9445;SDS011;4761;49.490;10.908;2022-10-31T13:18:35;14.60;;;4.90;;
9445;SDS011;4761;49.490;10.908;2022-10-31T13:21:08;11.23;;;4.88;;
9445;SDS011;4761;49.490;10.908;2022-10-31T13:23:40;12.25;;;4.80;;
9445;SDS011;4761;49.490;10.908;2022-10-31T13:26:11;11.45;;;4.40;;
9445;SDS011;4761;49.490;10.908;2022-10-31T13:28:52;10.80;;;4.65;;
9445;SDS011;4761;49.490;10.908;2022-10-31T13:31:25;12.88;;;4.40;;
9445;SDS011;4761;49.490;10.908;2022-10-31T13:34:25;14.77;;;4.38;;
9445;SDS011;4761;49.490;10.908;2022-10-31T13:36:58;8.20;;;4.30;;
9445;SDS011;4761;49.490;10.908;2022-10-31T13:39:32;10.65;;;4.60;;
9445;SDS011;4761;49.490;10.908;2022-10-31T13:45:18;7.25;;;3.95;;
9445;SDS011;4761;49.490;10.908;2022-10-31T13:47:59;5.70;;;4.15;;
9445;SDS011;4761;49.490;10.908;2022-10-31T13:50:27;6.53;;;3.90;;
9445;SDS011;4761;49.490;10.908;2022-10-31T13:58:34;5.53;;;3.95;;
9445;SDS011;4761;49.490;10.908;2022-10-31T14:03:36;6.65;;;3.80;;
9445;SDS011;4761;49.490;10.908;2022-10-31T14:06:04;5.97;;;3.90;;
9445;SDS011;4761;49.490;10.908;2022-10-31T14:08:32;4.97;;;3.83;;
9445;SDS011;4761;49.490;10.908;2022-10-31T14:10:59;6.38;;;3.85;;
9445;SDS011;4761;49.490;10.908;2022-10-31T14:18:36;5.78;;;3.60;;
9445;SDS011;4761;49.490;10.908;2022-10-31T14:23:50;5.93;;;3.92;;
9445;SDS011;4761;49.490;10.908;2022-10-31T14:28:51;5.55;;;4.00;;
9445;SDS011;4761;49.490;10.908;2022-10-31T14:36:49;8.45;;;3.85;;
9445;SDS011;4761;49.490;10.908;2022-10-31T14:48:16;5.13;;;3.85;;
9445;SDS011;4761;49.490;10.908;2022-10-31T14:51:00;6.35;;;4.25;;
9445;SDS011;4761;49.490;10.908;2022-10-31T14:53:31;9.60;;;4.22;;
9445;SDS011;4761;49.490;10.908;2022-10-31T14:56:00;6.15;;;3.90;;
9445;SDS011;4761;49.490;10.908;2022-10-31T14:58:37;5.70;;;4.53;;
9445;SDS011;4761;49.490;10.908;2022-10-31T15:01:05;8.30;;;5.00;;
9445;SDS011;4761;49.490;10.908;2022-10-31T15:03:33;8.35;;;4.53;;
9445;SDS011;4761;49.490;10.908;2022-10-31T15:06:11;8.27;;;4.60;;
9445;SDS011;4761;49.490;10.908;2022-10-31T15:08:39;9.43;;;5.50;;
9445;SDS011;4761;49.490;10.908;2022-10-31T15:11:10;29.05;;;12.13;;
9445;SDS011;4761;49.490;10.908;2022-10-31T15:13:47;20.83;;;8.55;;
9445;SDS011;4761;49.490;10.908;2022-10-31T15:16:18;11.60;;;5.80;;
9445;SDS011;4761;49.490;10.908;2022-10-31T15:19:10;8.70;;;4.85;;
9445;SDS011;4761;49.490;10.908;2022-10-31T15:21:40;9.90;;;5.03;;
9445;SDS011;4761;49.490;10.908;2022-10-31T15:24:11;11.73;;;5.88;;
9445;SDS011;4761;49.490;10.908;2022-10-31T15:26:43;9.07;;;5.50;;
9445;SDS011;4761;49.490;10.908;2022-10-31T15:29:12;11.65;;;5.72;;
9445;SDS011;4761;49.490;10.908;2022-10-31T15:37:11;10.73;;;5.90;;
9445;SDS011;4761;49.490;10.908;2022-10-31T15:39:38;7.93;;;4.93;;
9445;SDS011;4761;49.490;10.908;2022-10-31T15:42:13;10.40;;;5.38;;
9445;SDS011;4761;49.490;10.908;2022-10-31T15:45:00;9.90;;;6.00;;
9445;SDS011;4761;49.490;10.908;2022-10-31T15:47:30;9.77;;;7.13;;
9445;SDS011;4761;49.490;10.908;2022-10-31T15:49:57;11.48;;;7.68;;
9445;SDS011;4761;49.490;10.908;2022-10-31T15:52:36;12.05;;;9.13;;
9445;SDS011;4761;49.490;10.908;2022-10-31T15:57:38;10.73;;;9.63;;
9445;SDS011;4761;49.490;10.908;2022-10-31T16:00:06;16.43;;;10.63;;
9445;SDS011;4761;49.490;10.908;2022-10-31T16:02:45;14.37;;;10.17;;
9445;SDS011;4761;49.490;10.908;2022-10-31T16:05:14;12.07;;;9.73;;
9445;SDS011;4761;49.490;10.908;2022-10-31T16:07:47;12.90;;;9.40;;
9445;SDS011;4761;49.490;10.908;2022-10-31T16:10:21;11.52;;;9.07;;
9445;SDS011;4761;49.490;10.908;2022-10-31T16:12:49;10.82;;;8.60;;
9445;SDS011;4761;49.490;10.908;2022-10-31T16:15:15;11.87;;;9.40;;
9445;SDS011;4761;49.490;10.908;2022-10-31T16:17:43;10.40;;;8.27;;
9445;SDS011;4761;49.490;10.908;2022-10-31T16:20:47;12.23;;;8.40;;
9445;SDS011;4761;49.490;10.908;2022-10-31T16:23:02;11.77;;;7.80;;
9445;SDS011;4761;49.490;10.908;2022-10-31T16:25:29;12.07;;;7.80;;
9445;SDS011;4761;49.490;10.908;2022-10-31T16:28:03;10.20;;;7.50;;
9445;SDS011;4761;49.490;10.908;2022-10-31T16:30:47;9.37;;;7.47;;
9445;SDS011;4761;49.490;10.908;2022-10-31T16:35:48;9.60;;;7.33;;
9445;SDS011;4761;49.490;10.908;2022-10-31T16:38:14;9.95;;;7.57;;
9445;SDS011;4761;49.490;10.908;2022-10-31T16:40:39;8.83;;;7.13;;
9445;SDS011;4761;49.490;10.908;2022-10-31T16:43:05;7.70;;;6.80;;
9445;SDS011;4761;49.490;10.908;2022-10-31T16:45:35;9.27;;;6.53;;
9445;SDS011;4761;49.490;10.908;2022-10-31T16:48:05;11.18;;;6.50;;
9445;SDS011;4761;49.490;10.908;2022-10-31T16:50:34;7.17;;;6.37;;
9445;SDS011;4761;49.490;10.908;2022-10-31T16:53:01;8.57;;;6.22;;
9445;SDS011;4761;49.490;10.908;2022-10-31T16:55:27;8.20;;;5.83;;
9445;SDS011;4761;49.490;10.908;2022-10-31T16:57:55;9.77;;;6.63;;
9445;SDS011;4761;49.490;10.908;2022-10-31T17:00:22;7.47;;;6.10;;
9445;SDS011;4761;49.490;10.908;2022-10-31T17:02:53;7.80;;;5.77;;
9445;SDS011;4761;49.490;10.908;2022-10-31T17:05:21;7.37;;;5.83;;
9445;SDS011;4761;49.490;10.908;2022-10-31T17:07:54;8.10;;;6.17;;
9445;SDS011;4761;49.490;10.908;2022-10-31T17:10:20;6.23;;;5.63;;
9445;SDS011;4761;49.490;10.908;2022-10-31T17:12:46;8.10;;;5.47;;
9445;SDS011;4761;49.490;10.908;2022-10-31T17:15:26;7.60;;;5.82;;
9445;SDS011;4761;49.490;10.908;2022-10-31T17:17:53;7.70;;;6.13;;
9445;SDS011;4761;49.490;10.908;2022-10-31T17:20:23;6.23;;;5.10;;
9445;SDS011;4761;49.490;10.908;2022-10-31T17:22:49;6.00;;;5.40;;
9445;SDS011;4761;49.490;10.908;2022-10-31T17:25:16;5.93;;;5.20;;
9445;SDS011;4761;49.490;10.908;2022-10-31T17:27:47;6.10;;;5.30;;
9445;SDS011;4761;49.490;10.908;2022-10-31T17:30:13;5.60;;;5.10;;
9445;SDS011;4761;49.490;10.908;2022-10-31T17:32:39;6.23;;;5.57;;
9445;SDS011;4761;49.490;10.908;2022-10-31T17:35:06;8.13;;;5.67;;